Terminal Aerodrome Forecast
Issued by NWS

Home | Current Version | Previous Version | Text Only | Print | Product List | Glossary On
Versions: 1 2 3 4 5 6 7 8 9 10 11 12 13 14 15
545
FTUS46 KSEW 241130
TAFCLM
TAF
KCLM 241130Z 2412/2512 26003KT P6SM BKN050 OVC080
      TEMPO 2412/2416 -SHRA OVC035
     FM241600 28006KT P6SM VCSH BKN045 OVC080
     FM242000 29008KT P6SM -SHRA SCT035 BKN050 OVC070
     FM250300 26006KT P6SM VCSH SCT040 BKN060 BKN100=

USA.gov is the U.S. government's official web portal to all federal, state and local government web resources and services.